Time;durP1;ratioP1;P1;durP2;ratioP2;P2;SDS_P1;SDS_P2;PMS_P1;PMS_P2;Temp;Humidity;BMP_temperature;BMP_pressure;BME280_temperature;BME280_humidity;BME280_pressure;Samples;Min_cycle;Max_cycle;Signal;HPM_P1;HPM_P2
2024/03/12 00:02:20;;;;;;;38.55;25.67;;;;;;;7.99;100.00;100803.16;5079094;28;20044;-72
2024/03/12 00:05:08;;;;;;;39.90;26.15;;;;;;;7.96;100.00;100809.09;5077140;28;20124;-70
2024/03/12 00:07:58;;;;;;;37.75;25.45;;;;;;;7.97;100.00;100810.72;5092236;28;20083;-71
2024/03/12 00:10:46;;;;;;;39.55;27.17;;;;;;;7.97;100.00;100821.56;5065526;28;20295;-70
2024/03/12 00:13:34;;;;;;;40.30;26.75;;;;;;;7.97;100.00;100816.13;5095417;28;20048;-70
2024/03/12 00:16:23;;;;;;;41.90;28.08;;;;;;;7.98;100.00;100822.38;5075923;28;20047;-70
2024/03/12 00:19:11;;;;;;;40.55;26.67;;;;;;;7.98;100.00;100823.19;5079001;28;20202;-70
2024/03/12 00:22:00;;;;;;;39.42;27.52;;;;;;;7.97;100.00;100831.59;5093079;28;20054;-70
2024/03/12 00:24:49;;;;;;;41.08;26.05;;;;;;;7.96;100.00;100838.94;5051182;28;20044;-70
2024/03/12 00:27:40;;;;;;;37.47;25.17;;;;;;;7.97;100.00;100837.84;5078736;28;20563;-70
2024/03/12 00:30:30;;;;;;;36.08;24.80;;;;;;;7.96;100.00;100838.94;5091584;28;20131;-70
2024/03/12 00:33:20;;;;;;;36.70;27.17;;;;;;;7.97;100.00;100843.28;5078325;28;20040;-70
2024/03/12 00:36:12;;;;;;;38.38;27.05;;;;;;;7.99;100.00;100851.16;5062078;28;20051;-70
2024/03/12 00:39:02;;;;;;;40.40;24.70;;;;;;;8.01;100.00;100855.28;5093226;28;20036;-69
2024/03/12 00:41:50;;;;;;;39.00;25.83;;;;;;;8.04;100.00;100849.34;5078230;28;20044;-71
2024/03/12 00:44:39;;;;;;;41.72;26.75;;;;;;;8.03;100.00;100853.13;5076358;28;20139;-71
2024/03/12 00:47:27;;;;;;;42.83;28.50;;;;;;;8.04;100.00;100854.75;5092761;28;20044;-69
2024/03/12 00:50:16;;;;;;;40.92;28.77;;;;;;;8.04;100.00;100857.47;5044502;28;20047;-69
2024/03/12 00:53:04;;;;;;;40.53;29.40;;;;;;;8.04;100.00;100865.63;5063557;28;20048;-69
2024/03/12 00:55:53;;;;;;;39.38;27.92;;;;;;;8.04;100.00;100870.22;5101913;28;20067;-69
2024/03/12 00:58:41;;;;;;;40.10;27.58;;;;;;;8.01;100.00;100866.13;5098542;28;20127;-71
2024/03/12 01:01:30;;;;;;;43.42;27.73;;;;;;;7.99;100.00;100868.25;5112524;28;20176;-70
2024/03/12 01:04:18;;;;;;;41.67;27.02;;;;;;;7.98;100.00;100866.59;5097429;28;20043;-69
2024/03/12 01:07:07;;;;;;;43.00;28.08;;;;;;;7.99;100.00;100870.97;5111411;28;20043;-70
2024/03/12 01:09:55;;;;;;;38.33;26.77;;;;;;;7.97;100.00;100873.13;5111974;28;20043;-70
2024/03/12 01:12:43;;;;;;;45.20;29.17;;;;;;;7.96;100.00;100876.91;5111868;28;20052;-70
2024/03/12 01:15:31;;;;;;;45.03;29.35;;;;;;;7.95;100.00;100872.53;5110043;28;20052;-70
2024/03/12 01:18:19;;;;;;;39.97;28.38;;;;;;;7.97;100.00;100880.44;5121857;28;20123;-68
2024/03/12 01:21:08;;;;;;;43.55;28.95;;;;;;;7.99;100.00;100881.84;5108048;28;20053;-70
2024/03/12 01:23:56;;;;;;;38.90;27.73;;;;;;;7.99;100.00;100889.16;5132098;28;20111;-70
2024/03/12 01:26:44;;;;;;;40.28;28.30;;;;;;;7.98;100.00;100891.03;5113875;28;20039;-69
2024/03/12 01:29:33;;;;;;;43.83;28.45;;;;;;;7.98;100.00;100892.91;5121401;28;20053;-67
2024/03/12 01:32:21;;;;;;;38.47;27.17;;;;;;;7.97;100.00;100886.69;5133888;28;20070;-70
2024/03/12 01:35:09;;;;;;;38.90;27.70;;;;;;;7.97;100.00;100891.28;5088875;28;20327;-70
2024/03/12 01:37:57;;;;;;;44.05;28.60;;;;;;;7.97;100.00;100897.53;5074607;28;20522;-70
2024/03/12 01:40:46;;;;;;;39.50;27.52;;;;;;;7.95;100.00;100899.66;5077389;28;20415;-70
2024/03/12 01:43:35;;;;;;;41.63;27.98;;;;;;;7.96;100.00;100901.31;5093919;28;20051;-70
2024/03/12 01:46:23;;;;;;;40.50;26.75;;;;;;;7.95;100.00;100898.84;5097930;28;20456;-70
2024/03/12 01:49:12;;;;;;;34.40;24.45;;;;;;;7.94;100.00;100898.03;5096617;28;20105;-70
2024/03/12 01:52:01;;;;;;;35.47;25.05;;;;;;;7.95;100.00;100902.38;5097159;28;20060;-70
2024/03/12 01:54:52;;;;;;;34.15;24.15;;;;;;;7.92;100.00;100902.88;5095235;28;20047;-69
2024/03/12 01:57:41;;;;;;;30.35;21.77;;;;;;;7.90;100.00;100902.31;5095887;28;20043;-71
2024/03/12 02:00:32;;;;;;;36.22;22.92;;;;;;;7.92;100.00;100902.88;5112627;28;20510;-70
2024/03/12 02:03:21;;;;;;;31.00;23.67;;;;;;;7.94;100.00;100897.19;5110113;28;20605;-71
2024/03/12 02:06:09;;;;;;;31.70;22.92;;;;;;;7.94;100.00;100903.47;5107913;28;20047;-69
2024/03/12 02:08:59;;;;;;;31.17;23.67;;;;;;;7.93;100.00;100907.22;5112017;28;20040;-70
2024/03/12 02:11:47;;;;;;;33.58;24.13;;;;;;;7.93;100.00;100909.94;5110544;28;20104;-70
2024/03/12 02:14:35;;;;;;;34.92;25.67;;;;;;;7.92;100.00;100908.31;5112465;28;20051;-69
2024/03/12 02:17:24;;;;;;;33.05;22.77;;;;;;;7.92;100.00;100908.31;5091730;28;20079;-69
2024/03/12 02:20:12;;;;;;;35.65;23.80;;;;;;;7.90;100.00;100913.97;5077722;28;20173;-70
2024/03/12 02:23:01;;;;;;;33.42;24.23;;;;;;;7.94;100.00;100924.31;5062903;28;20062;-69
2024/03/12 02:25:49;;;;;;;32.33;22.58;;;;;;;7.93;100.00;100918.09;5095777;28;20040;-70
2024/03/12 02:28:37;;;;;;;30.23;21.85;;;;;;;7.92;100.00;100916.44;5101110;28;20119;-69
2024/03/12 02:31:25;;;;;;;34.92;22.75;;;;;;;7.92;100.00;100911.03;5082849;28;20123;-69
2024/03/12 02:34:13;;;;;;;34.45;23.13;;;;;;;7.90;100.00;100916.69;5096101;28;20134;-71
2024/03/12 02:37:02;;;;;;;31.10;20.25;;;;;;;7.91;100.00;100925.63;5079414;28;20132;-69
2024/03/12 02:39:50;;;;;;;33.75;21.95;;;;;;;7.90;100.00;100922.13;5094650;28;20514;-69
2024/03/12 02:42:38;;;;;;;32.67;20.67;;;;;;;7.88;100.00;100924.25;5095455;28;20488;-69
2024/03/12 02:45:26;;;;;;;30.77;21.63;;;;;;;7.89;100.00;100925.91;5081745;28;20079;-69
2024/03/12 02:48:15;;;;;;;30.70;20.35;;;;;;;7.88;100.00;100937.81;5067394;28;20120;-69
2024/03/12 02:51:05;;;;;;;31.35;20.25;;;;;;;7.89;100.00;100938.66;5080667;28;20135;-69
2024/03/12 02:53:53;;;;;;;30.33;19.63;;;;;;;7.87;100.00;100938.06;5097677;28;20241;-70
2024/03/12 02:56:42;;;;;;;32.28;20.35;;;;;;;7.86;100.00;100949.97;5116124;28;20062;-69
2024/03/12 02:59:31;;;;;;;28.50;19.23;;;;;;;7.84;100.00;100955.66;5087140;28;20040;-69
2024/03/12 03:02:20;;;;;;;30.42;19.23;;;;;;;7.81;100.00;100958.03;5113479;28;20445;-69
2024/03/12 03:05:11;;;;;;;32.70;19.77;;;;;;;7.80;100.00;100959.13;5098950;28;20043;-69
2024/03/12 03:08:00;;;;;;;30.85;19.98;;;;;;;7.79;100.00;100960.16;5100537;28;20063;-69
2024/03/12 03:10:48;;;;;;;29.25;19.40;;;;;;;7.78;100.00;100963.97;5095225;28;20051;-70
2024/03/12 03:13:36;;;;;;;32.95;21.48;;;;;;;7.77;100.00;100956.88;5095000;28;20040;-70
2024/03/12 03:16:25;;;;;;;26.50;17.27;;;;;;;7.71;100.00;100955.97;5082686;28;20116;-70
2024/03/12 03:19:13;;;;;;;32.17;19.70;;;;;;;7.70;100.00;100962.47;5115302;28;20130;-70
2024/03/12 03:22:01;;;;;;;33.28;20.75;;;;;;;7.69;100.00;100961.63;5114662;28;20427;-69
2024/03/12 03:24:49;;;;;;;37.80;21.48;;;;;;;7.67;100.00;100961.09;5114663;28;20036;-70
2024/03/12 03:27:37;;;;;;;33.33;20.98;;;;;;;7.66;100.00;100959.44;5112480;28;20051;-70
2024/03/12 03:30:25;;;;;;;34.50;21.83;;;;;;;7.65;100.00;100959.69;5114013;28;20044;-70
2024/03/12 03:33:15;;;;;;;32.30;21.27;;;;;;;7.63;100.00;100962.63;5113978;28;20040;-70
2024/03/12 03:36:04;;;;;;;37.45;21.80;;;;;;;7.61;100.00;100964.75;5114275;28;20046;-70
2024/03/12 03:38:52;;;;;;;33.08;21.80;;;;;;;7.61;100.00;100970.19;5114541;28;20123;-70
2024/03/12 03:41:40;;;;;;;39.60;23.33;;;;;;;7.59;100.00;100977.75;5099119;28;20048;-70
2024/03/12 03:44:29;;;;;;;37.40;21.73;;;;;;;7.58;100.00;100976.09;5108547;28;20144;-70
2024/03/12 03:47:17;;;;;;;34.22;21.65;;;;;;;7.59;100.00;100982.34;5099228;28;20096;-70
2024/03/12 03:50:07;;;;;;;35.20;21.83;;;;;;;7.59;100.00;100988.59;5114551;28;20082;-70
2024/03/12 03:52:56;;;;;;;36.75;21.95;;;;;;;7.60;100.00;100997.53;5113128;28;20063;-70
2024/03/12 03:55:45;;;;;;;31.95;20.17;;;;;;;7.60;100.00;100992.13;5113725;28;20058;-71
2024/03/12 03:58:33;;;;;;;34.05;20.42;;;;;;;7.61;100.00;100996.50;5114721;28;20087;-70
2024/03/12 04:01:21;;;;;;;35.92;21.88;;;;;;;7.58;100.00;101005.94;5099725;28;20181;-71
2024/03/12 04:04:15;;;;;;;35.45;20.20;;;;;;;7.60;100.00;101006.53;5112368;28;20602;-71
2024/03/12 04:07:04;;;;;;;36.97;21.08;;;;;;;7.61;100.00;101013.56;5114524;28;20085;-71
2024/03/12 04:09:54;;;;;;;34.05;20.75;;;;;;;7.60;100.00;101017.38;5099578;28;20063;-70
2024/03/12 04:12:44;;;;;;;36.60;20.73;;;;;;;7.59;100.00;101021.13;5113895;28;20047;-71
2024/03/12 04:15:33;;;;;;;36.22;21.10;;;;;;;7.57;100.00;101017.00;5097636;28;20050;-70
2024/03/12 04:18:22;;;;;;;37.70;20.27;;;;;;;7.58;100.00;101021.38;5112674;28;20054;-70
2024/03/12 04:21:14;;;;;;;36.08;22.38;;;;;;;7.57;100.00;101028.69;5099549;28;20035;-70
2024/03/12 04:24:02;;;;;;;34.42;20.60;;;;;;;7.60;100.00;101027.38;5085763;28;20039;-70
2024/03/12 04:26:51;;;;;;;36.13;20.88;;;;;;;7.61;100.00;101034.44;5110441;28;20063;-70
2024/03/12 04:29:40;;;;;;;39.15;21.63;;;;;;;7.61;100.00;101037.97;5099411;28;20039;-70
2024/03/12 04:32:28;;;;;;;37.80;20.65;;;;;;;7.62;100.00;101045.03;5099617;28;20542;-70
2024/03/12 04:35:16;;;;;;;38.22;22.05;;;;;;;7.60;100.00;101049.06;5113426;28;20059;-69
2024/03/12 04:38:04;;;;;;;41.17;21.85;;;;;;;7.59;100.00;101045.53;5096020;28;20086;-69
2024/03/12 04:40:52;;;;;;;39.30;22.35;;;;;;;7.61;100.00;101048.00;5080454;28;20212;-70
2024/03/12 04:43:41;;;;;;;37.17;21.52;;;;;;;7.61;100.00;101051.53;5098574;28;20506;-70
2024/03/12 04:46:29;;;;;;;37.40;21.55;;;;;;;7.60;100.00;101055.34;5111891;28;20059;-70
2024/03/12 04:49:17;;;;;;;36.47;20.92;;;;;;;7.61;100.00;101062.38;5084271;28;20032;-70
2024/03/12 04:52:05;;;;;;;36.17;20.02;;;;;;;7.61;100.00;101067.81;5113343;28;20062;-70
2024/03/12 04:54:54;;;;;;;35.22;18.58;;;;;;;7.62;100.00;101063.19;5113512;28;20124;-70
2024/03/12 04:57:43;;;;;;;34.10;19.98;;;;;;;7.61;100.00;101067.81;5105175;28;20054;-70
2024/03/12 05:00:31;;;;;;;32.13;19.60;;;;;;;7.59;100.00;101067.22;5112921;28;20081;-70
2024/03/12 05:03:19;;;;;;;35.05;19.95;;;;;;;7.59;100.00;101071.84;5093851;28;20526;-70
2024/03/12 05:06:07;;;;;;;37.65;21.27;;;;;;;7.58;100.00;101079.16;5096554;28;20075;-70
2024/03/12 05:08:56;;;;;;;40.22;21.27;;;;;;;7.58;100.00;101081.88;5097684;28;20043;-70
2024/03/12 05:11:44;;;;;;;41.22;21.70;;;;;;;7.57;100.00;101082.91;5113436;28;20055;-70
2024/03/12 05:14:32;;;;;;;37.65;20.58;;;;;;;7.57;100.00;101091.03;5096583;28;20044;-70
2024/03/12 05:17:21;;;;;;;36.47;19.75;;;;;;;7.59;100.00;101090.81;5113396;28;20051;-70
2024/03/12 05:20:10;;;;;;;34.95;18.58;;;;;;;7.58;100.00;101098.13;5112248;28;20050;-69
2024/03/12 05:22:58;;;;;;;34.53;18.40;;;;;;;7.60;100.00;101097.88;5054517;28;20136;-70
2024/03/12 05:25:46;;;;;;;31.67;18.50;;;;;;;7.62;100.00;101107.41;5091708;28;20035;-70
2024/03/12 05:28:35;;;;;;;33.38;19.73;;;;;;;7.62;100.00;101104.69;5077725;28;20056;-70
2024/03/12 05:31:32;;;;;;;34.13;18.95;;;;;;;7.60;100.00;101108.72;5092397;28;20139;-70
2024/03/12 05:34:28;;;;;;;34.00;18.23;;;;;;;7.59;100.00;101107.91;5111116;28;20047;-71
2024/03/12 05:37:29;;;;;;;35.53;19.63;;;;;;;7.59;100.00;101124.16;5114286;28;20151;-70
2024/03/12 05:40:17;;;;;;;36.83;19.15;;;;;;;7.58;100.00;101125.25;5128878;28;20065;-68
2024/03/12 05:49:19;;;;;;;35.25;16.75;;;;;;;7.58;100.00;101133.38;5104596;28;20027;-70
2024/03/12 05:52:08;;;;;;;38.58;19.35;;;;;;;7.54;100.00;101132.22;5106883;28;20066;-69
2024/03/12 05:54:56;;;;;;;38.08;19.05;;;;;;;7.54;100.00;101139.53;5134665;28;20043;-66
2024/03/12 05:57:44;;;;;;;33.38;17.50;;;;;;;7.53;100.00;101146.00;5118789;28;20048;-70
2024/03/12 06:00:32;;;;;;;35.25;18.63;;;;;;;7.53;100.00;101144.13;5099340;28;20047;-70
2024/03/12 06:03:20;;;;;;;34.33;16.85;;;;;;;7.53;100.00;101146.00;5111939;28;20408;-70
2024/03/12 06:06:09;;;;;;;39.72;19.83;;;;;;;7.52;100.00;101149.78;5092373;28;20076;-70
2024/03/12 06:08:57;;;;;;;38.67;20.77;;;;;;;7.48;100.00;101160.28;5077161;28;20551;-69
2024/03/12 06:11:45;;;;;;;39.42;20.50;;;;;;;7.41;100.00;101163.13;5091590;28;20052;-69
2024/03/12 06:14:34;;;;;;;38.45;20.08;;;;;;;7.38;100.00;101160.06;5069203;28;20044;-70
2024/03/12 06:17:23;;;;;;;38.33;19.98;;;;;;;7.34;100.00;101164.31;5109351;28;20083;-70
2024/03/12 06:20:12;;;;;;;38.90;18.98;;;;;;;7.37;100.00;101169.25;5100695;28;20448;-69
2024/03/12 06:23:01;;;;;;;41.50;19.08;;;;;;;7.40;100.00;101174.19;5099271;28;20050;-70
2024/03/12 06:25:50;;;;;;;35.85;18.88;;;;;;;7.42;100.00;101177.50;5106380;28;20044;-70
2024/03/12 06:28:39;;;;;;;35.83;17.75;;;;;;;7.42;100.00;101174.78;5084754;28;20046;-70
2024/03/12 06:31:31;;;;;;;34.35;17.90;;;;;;;7.46;100.00;101184.09;5111491;28;20412;-71
2024/03/12 06:34:21;;;;;;;36.50;17.27;;;;;;;7.46;100.00;101184.09;5115796;28;20048;-70
2024/03/12 06:37:09;;;;;;;35.90;17.55;;;;;;;7.47;100.00;101185.75;5087483;28;20044;-69
2024/03/12 06:39:58;;;;;;;29.02;16.80;;;;;;;7.46;100.00;101194.94;5101134;28;20043;-71
2024/03/12 06:42:47;;;;;;;33.88;16.77;;;;;;;7.50;100.00;101193.38;5112293;28;20094;-71
2024/03/12 06:45:35;;;;;;;36.38;18.33;;;;;;;7.52;100.00;101198.59;5111930;28;20058;-70
2024/03/12 06:48:23;;;;;;;30.77;15.90;;;;;;;7.51;100.00;101191.53;5103976;28;20047;-70
2024/03/12 06:51:11;;;;;;;33.15;17.20;;;;;;;7.50;100.00;101201.53;5078430;28;20056;-70
2024/03/12 06:53:59;;;;;;;34.00;17.55;;;;;;;7.51;100.00;101210.50;5081098;28;20056;-70
2024/03/12 06:56:48;;;;;;;35.20;17.65;;;;;;;7.50;100.00;101201.53;5070512;28;20105;-70
2024/03/12 06:59:53;;;;;;;31.50;17.17;;;;;;;7.50;100.00;101206.94;5081083;28;20200;-70
2024/03/12 07:02:41;;;;;;;30.42;15.73;;;;;;;7.52;100.00;101204.81;4371982;28;10000361;-70
2024/03/12 07:05:33;;;;;;;30.90;15.75;;;;;;;7.50;100.00;101211.56;5087709;28;20146;-69
2024/03/12 07:08:25;;;;;;;30.70;16.45;;;;;;;7.47;100.00;101212.84;5073788;28;20051;-70
2024/03/12 07:11:17;;;;;;;29.30;15.18;;;;;;;7.46;100.00;101211.22;5060024;28;20052;-70
2024/03/12 07:14:12;;;;;;;29.42;15.88;;;;;;;7.49;100.00;101221.56;5059970;28;20044;-72
2024/03/12 07:17:01;;;;;;;31.80;16.58;;;;;;;7.41;100.00;101230.09;5063631;28;20063;-72
2024/03/12 07:19:49;;;;;;;29.30;16.48;;;;;;;7.39;100.00;101229.50;5077943;28;20044;-70
2024/03/12 07:22:42;;;;;;;30.02;16.48;;;;;;;7.37;100.00;101228.91;5048752;28;20044;-69
2024/03/12 07:25:33;;;;;;;34.95;16.88;;;;;;;7.35;100.00;101236.44;5091781;28;20044;-70
2024/03/12 07:28:21;;;;;;;28.98;15.50;;;;;;;7.37;100.00;101234.31;5075737;28;20040;-70
2024/03/12 07:31:12;;;;;;;33.00;15.25;;;;;;;7.42;100.00;101237.16;5078198;28;20048;-70
2024/03/12 07:34:01;;;;;;;27.75;14.60;;;;;;;7.42;100.00;101237.97;5075412;28;20055;-70
2024/03/12 07:36:49;;;;;;;28.33;14.38;;;;;;;7.47;100.00;101245.38;5065749;28;20441;-70
2024/03/12 07:39:38;;;;;;;25.65;14.07;;;;;;;7.49;100.00;101251.41;5081059;28;20044;-71
2024/03/12 07:42:26;;;;;;;25.92;13.23;;;;;;;7.50;100.00;101254.94;5059919;28;20071;-71
2024/03/12 07:45:16;;;;;;;26.98;13.80;;;;;;;7.51;100.00;101260.13;5055303;28;20119;-70
2024/03/12 07:48:05;;;;;;;25.75;14.60;;;;;;;7.52;100.00;101261.75;5081239;28;20047;-70
2024/03/12 07:50:55;;;;;;;24.42;13.02;;;;;;;7.53;100.00;101260.72;5083080;28;20054;-70
2024/03/12 07:53:46;;;;;;;22.00;13.20;;;;;;;7.54;100.00;101262.34;5098968;28;20036;-70
2024/03/12 07:56:35;;;;;;;24.90;14.38;;;;;;;7.52;100.00;101267.19;5114681;28;20442;-70
2024/03/12 07:59:24;;;;;;;24.23;13.85;;;;;;;7.52;100.00;101263.66;5099034;28;20036;-70
2024/03/12 08:02:13;;;;;;;23.88;14.25;;;;;;;7.53;100.00;101270.72;5114674;28;20433;-69
2024/03/12 08:05:01;;;;;;;24.38;13.60;;;;;;;7.54;100.00;101267.78;5110008;28;20457;-70
2024/03/12 08:07:52;;;;;;;26.40;14.40;;;;;;;7.55;100.00;101274.88;5097804;28;20452;-70
2024/03/12 08:10:40;;;;;;;24.55;14.38;;;;;;;7.57;100.00;101278.16;5093300;28;20569;-70
2024/03/12 08:13:28;;;;;;;29.80;16.00;;;;;;;7.57;100.00;101282.75;5097223;28;20036;-71
2024/03/12 08:16:16;;;;;;;28.42;15.95;;;;;;;7.55;100.00;101282.16;5113087;28;20518;-70
2024/03/12 08:19:05;;;;;;;25.58;14.82;;;;;;;7.58;100.00;101277.09;5113131;28;20059;-71
2024/03/12 08:21:53;;;;;;;29.88;15.63;;;;;;;7.57;100.00;101278.16;5114275;28;20043;-70
2024/03/12 08:24:41;;;;;;;26.45;15.25;;;;;;;7.59;100.00;101286.06;5112921;28;20467;-70
2024/03/12 08:27:29;;;;;;;26.40;14.90;;;;;;;7.58;100.00;101282.53;5097645;28;20077;-71
2024/03/12 08:30:18;;;;;;;30.35;15.60;;;;;;;7.60;100.00;101287.69;5114180;28;20446;-69
2024/03/12 08:33:07;;;;;;;22.42;15.48;;;;;;;7.59;100.00;101295.00;5112320;28;20086;-70
2024/03/12 08:35:55;;;;;;;25.85;15.65;;;;;;;7.62;100.00;101296.41;5109457;28;20504;-71
2024/03/12 08:38:44;;;;;;;25.42;14.65;;;;;;;7.62;100.00;101291.00;5112382;28;20073;-71
2024/03/12 08:41:33;;;;;;;26.92;15.82;;;;;;;7.66;100.00;101301.13;5110364;28;20066;-70
2024/03/12 08:44:21;;;;;;;23.75;15.63;;;;;;;7.62;100.00;101299.94;5113042;28;20055;-70
2024/03/12 08:47:10;;;;;;;24.50;15.20;;;;;;;7.63;100.00;101308.94;5113510;28;20058;-70
2024/03/12 08:49:58;;;;;;;22.80;13.30;;;;;;;7.64;100.00;101300.53;5098920;28;20036;-69
2024/03/12 08:52:46;;;;;;;26.92;15.88;;;;;;;7.66;100.00;101303.84;5111761;28;20067;-70
2024/03/12 08:55:34;;;;;;;25.98;16.65;;;;;;;7.68;100.00;101307.16;5100266;28;20048;-70
2024/03/12 08:58:23;;;;;;;25.33;16.98;;;;;;;7.68;100.00;101309.88;5103117;28;20055;-70
2024/03/12 09:01:11;;;;;;;26.88;16.90;;;;;;;7.71;100.00;101307.75;5113043;28;20046;-71
2024/03/12 09:04:00;;;;;;;32.40;17.83;;;;;;;7.65;100.00;101307.63;5079619;28;20500;-70
2024/03/12 09:06:49;;;;;;;28.75;17.67;;;;;;;7.60;100.00;101310.22;5098555;28;20040;-70
2024/03/12 09:09:39;;;;;;;26.95;17.35;;;;;;;7.61;100.00;101306.44;5078747;28;20082;-70
2024/03/12 09:12:27;;;;;;;32.35;19.90;;;;;;;7.64;100.00;101310.56;5092631;28;20040;-71
2024/03/12 09:15:16;;;;;;;26.48;15.90;;;;;;;7.68;100.00;101318.00;5093556;28;20056;-71
2024/03/12 09:18:07;;;;;;;26.88;16.80;;;;;;;7.75;100.00;101317.88;5093127;28;20044;-71
2024/03/12 09:20:56;;;;;;;29.10;18.10;;;;;;;7.83;100.00;101319.41;5092088;28;20048;-71
2024/03/12 09:23:44;;;;;;;25.67;16.48;;;;;;;7.84;100.00;101316.47;5092469;28;20044;-70
2024/03/12 09:26:47;;;;;;;24.23;15.18;;;;;;;7.94;100.00;101315.88;5092952;28;20518;-71
2024/03/12 09:29:36;;;;;;;29.88;18.35;;;;;;;8.01;100.00;101322.00;5065991;28;20063;-69
2024/03/12 09:32:24;;;;;;;27.38;18.15;;;;;;;8.00;100.00;101316.78;5082907;28;20066;-69
2024/03/12 09:35:13;;;;;;;31.70;18.98;;;;;;;7.98;100.00;101311.59;5112406;28;20044;-72
2024/03/12 09:38:01;;;;;;;25.25;15.88;;;;;;;8.01;100.00;101322.00;5093396;28;20054;-71
2024/03/12 09:40:52;;;;;;;27.63;17.42;;;;;;;7.98;100.00;101319.72;5093550;28;20051;-71
2024/03/12 09:43:43;;;;;;;27.67;18.45;;;;;;;8.00;100.00;101333.06;5077903;28;20055;-70
2024/03/12 09:46:32;;;;;;;25.58;15.40;;;;;;;8.03;100.00;101327.16;5094146;28;20133;-70
2024/03/12 09:49:21;;;;;;;28.85;18.70;;;;;;;8.01;100.00;101329.28;5113329;28;20400;-71
2024/03/12 09:52:09;;;;;;;30.90;18.45;;;;;;;7.99;100.00;101326.81;5112206;28;20419;-70
2024/03/12 09:54:57;;;;;;;26.42;17.13;;;;;;;8.03;100.00;101330.72;5112984;28;20466;-71
2024/03/12 09:57:46;;;;;;;28.23;19.10;;;;;;;8.10;100.00;101331.41;5091273;28;20043;-70
2024/03/12 10:00:36;;;;;;;27.52;17.63;;;;;;;8.16;100.00;101326.91;5128989;28;20048;-71
2024/03/12 10:03:24;;;;;;;31.55;19.63;;;;;;;8.23;100.00;101324.06;5113462;28;20104;-70
2024/03/12 10:06:13;;;;;;;32.03;19.77;;;;;;;8.22;100.00;101327.84;5118911;28;20097;-71
2024/03/12 10:09:01;;;;;;;32.55;20.90;;;;;;;8.28;100.00;101321.47;5121504;28;20043;-71
2024/03/12 10:11:49;;;;;;;27.88;18.38;;;;;;;8.36;100.00;101323.78;5113644;28;20052;-72
2024/03/12 10:14:37;;;;;;;34.80;20.58;;;;;;;8.44;100.00;101325.31;5130827;28;20104;-71
2024/03/12 10:17:25;;;;;;;30.80;20.92;;;;;;;8.45;100.00;101322.38;5115572;28;20048;-70
2024/03/12 10:20:15;;;;;;;31.20;20.05;;;;;;;8.43;100.00;101321.78;5094195;28;20052;-70
2024/03/12 10:23:09;;;;;;;31.25;22.27;;;;;;;8.38;100.00;101327.09;5113650;28;20075;-72
2024/03/12 10:26:12;;;;;;;30.70;21.40;;;;;;;8.37;100.00;101322.75;5079642;28;20136;-70
2024/03/12 10:29:16;;;;;;;27.30;17.15;;;;;;;8.47;100.00;101325.69;5068706;28;20180;-71
2024/03/12 10:32:18;;;;;;;32.10;21.23;;;;;;;8.49;100.00;101318.13;5083840;28;20053;-69
2024/03/12 10:35:19;;;;;;;27.95;19.10;;;;;;;8.46;100.00;101324.00;5095996;28;20048;-69
2024/03/12 10:38:07;;;;;;;32.92;24.10;;;;;;;8.38;100.00;101327.09;5096450;28;20056;-69
2024/03/12 10:40:56;;;;;;;33.78;24.15;;;;;;;8.35;100.00;101326.75;5090477;28;20048;-70
2024/03/12 10:43:48;;;;;;;37.65;27.30;;;;;;;8.33;100.00;101327.00;5063040;28;20044;-70
2024/03/12 10:46:39;;;;;;;36.40;25.67;;;;;;;8.33;100.00;101330.53;5095607;28;20062;-71
2024/03/12 10:49:28;;;;;;;38.47;26.83;;;;;;;8.32;100.00;101333.47;5097318;28;20152;-70
2024/03/12 10:52:18;;;;;;;39.60;27.55;;;;;;;8.32;100.00;101333.47;5086943;28;20522;-71
2024/03/12 10:55:07;;;;;;;43.28;28.65;;;;;;;8.34;100.00;101339.50;5060297;28;20078;-74
2024/03/12 10:58:00;;;;;;;39.95;29.60;;;;;;;8.37;100.00;101338.19;5100609;28;20359;-70
2024/03/12 11:00:49;;;;;;;46.17;31.95;;;;;;;8.38;100.00;101343.38;5114441;28;20130;-70
2024/03/12 11:03:37;;;;;;;46.20;31.75;;;;;;;8.41;100.00;101344.81;5100663;28;20053;-71
2024/03/12 11:06:27;;;;;;;42.78;29.88;;;;;;;8.46;100.00;101348.44;5098951;28;20078;-70
2024/03/12 11:09:21;;;;;;;38.88;26.70;;;;;;;8.50;100.00;101351.53;5115111;28;20071;-71
2024/03/12 11:12:09;;;;;;;40.13;28.05;;;;;;;8.53;100.00;101341.00;5093857;28;20073;-70
2024/03/12 11:15:03;;;;;;;31.70;23.20;;;;;;;8.62;100.00;101340.63;4590023;28;10001616;-69
2024/03/12 11:17:51;;;;;;;40.05;28.58;;;;;;;8.62;100.00;101343.34;5109327;28;20094;-69
2024/03/12 11:20:40;;;;;;;28.65;18.90;;;;;;;8.73;100.00;101345.16;5112217;28;20063;-70
2024/03/12 11:23:28;;;;;;;39.33;28.90;;;;;;;8.71;100.00;101341.91;5082353;28;20039;-71
2024/03/12 11:26:16;;;;;;;34.20;23.15;;;;;;;8.79;100.00;101336.06;5089573;28;20134;-69
2024/03/12 11:29:06;;;;;;;36.47;25.83;;;;;;;8.76;100.00;101335.72;5096874;28;20063;-70
2024/03/12 11:31:54;;;;;;;30.65;20.42;;;;;;;8.79;100.00;101329.81;5111317;28;20313;-69
2024/03/12 11:34:42;;;;;;;31.48;22.13;;;;;;;8.83;100.00;101342.66;5096440;28;20607;-70
2024/03/12 11:37:30;;;;;;;37.22;25.20;;;;;;;9.05;100.00;101326.47;5108335;28;20107;-70
2024/03/12 11:40:30;;;;;;;28.77;17.23;;;;;;;9.11;100.00;101340.97;5075845;28;20063;-69
2024/03/12 11:43:48;;;;;;;35.60;24.13;;;;;;;9.16;100.00;101327.47;5091390;28;20051;-69
2024/03/12 11:46:44;;;;;;;24.35;14.02;;;;;;;9.17;100.00;101324.50;5074101;28;20059;-69
2024/03/12 11:49:32;;;;;;;32.45;21.42;;;;;;;9.39;100.00;101329.22;5111238;28;20044;-70
2024/03/12 11:52:21;;;;;;;30.25;19.48;;;;;;;9.32;100.00;101337.53;5090141;28;20067;-70
2024/03/12 11:55:12;;;;;;;33.72;23.30;;;;;;;9.19;100.00;101335.13;5084209;28;20063;-70
2024/03/12 11:58:01;;;;;;;34.83;23.65;;;;;;;9.15;100.00;101328.53;5092803;28;20043;-71
2024/03/12 12:00:50;;;;;;;39.78;25.67;;;;;;;9.22;100.00;101328.38;5094987;28;20400;-70
2024/03/12 12:03:39;;;;;;;37.13;24.48;;;;;;;9.09;100.00;101326.78;5109781;28;20044;-70
2024/03/12 12:06:33;;;;;;;34.15;23.13;;;;;;;9.13;100.00;101327.97;5109656;28;20323;-70
2024/03/12 12:09:22;;;;;;;42.20;27.92;;;;;;;9.02;100.00;101326.97;5069628;28;20039;-71
2024/03/12 12:12:14;;;;;;;42.15;27.50;;;;;;;8.94;100.00;101330.06;5091783;28;20044;-70
2024/03/12 12:15:05;;;;;;;41.10;27.80;;;;;;;8.89;100.00;101327.25;5107029;28;20134;-72
2024/03/12 12:18:07;;;;;;;43.38;28.58;;;;;;;8.87;100.00;101323.97;5109922;28;20051;-70
2024/03/12 12:21:02;;;;;;;38.65;25.42;;;;;;;8.91;100.00;101317.78;5108738;28;20075;-70
2024/03/12 12:23:51;;;;;;;33.35;22.00;;;;;;;9.00;100.00;101322.84;5109953;28;20065;-69
2024/03/12 12:26:40;;;;;;;34.97;23.05;;;;;;;9.04;100.00;101318.56;5109605;28;20363;-71
2024/03/12 12:29:29;;;;;;;41.10;26.42;;;;;;;9.05;100.00;101314.78;5095255;28;20051;-69
2024/03/12 12:32:17;;;;;;;42.60;28.27;;;;;;;9.02;100.00;101326.13;5110040;28;20055;-72
2024/03/12 12:35:11;;;;;;;40.50;28.13;;;;;;;9.00;100.00;101317.41;5080965;28;20044;-72
2024/03/12 12:38:01;;;;;;;42.28;27.40;;;;;;;9.04;100.00;101318.56;5097351;28;20160;-71
2024/03/12 12:40:49;;;;;;;42.53;29.92;;;;;;;9.05;100.00;101315.59;5067509;28;20124;-71
2024/03/12 12:43:39;;;;;;;40.88;28.13;;;;;;;9.11;100.00;101316.50;5095966;28;20626;-71
2024/03/12 12:46:28;;;;;;;40.63;28.30;;;;;;;9.14;100.00;101318.75;5110061;28;20058;-71
2024/03/12 12:49:16;;;;;;;39.95;27.30;;;;;;;9.20;100.00;101312.31;5096814;28;20097;-71
2024/03/12 12:52:06;;;;;;;40.33;28.08;;;;;;;9.22;100.00;101318.31;5110394;28;20519;-71
2024/03/12 12:54:59;;;;;;;28.63;17.85;;;;;;;9.33;100.00;101322.03;5082408;28;20054;-72
2024/03/12 12:57:58;;;;;;;29.55;19.23;;;;;;;9.51;100.00;101312.81;5078142;28;20259;-72